createdAt,value
2024-04-05T00:00:03.566Z,4
2024-04-05T00:05:02.839Z,0
2024-04-05T00:10:03.103Z,0
2024-04-05T00:15:02.618Z,0
2024-04-05T00:20:02.938Z,4
2024-04-05T00:25:02.518Z,4
2024-04-05T00:30:02.859Z,0
2024-04-05T00:35:03.207Z,0
2024-04-05T00:40:02.429Z,4
2024-04-05T00:45:02.659Z,4
2024-04-05T00:50:02.944Z,4
2024-04-05T00:55:02.168Z,0
2024-04-05T01:00:02.511Z,4
2024-04-05T01:05:02.760Z,4
2024-04-05T01:10:04.109Z,9
2024-04-05T01:15:02.592Z,0
2024-04-05T01:20:02.904Z,4
2024-04-05T01:25:02.135Z,0
2024-04-05T01:30:02.363Z,0
2024-04-05T01:35:03.751Z,0
2024-04-05T01:40:03.134Z,16
2024-04-05T01:45:02.411Z,17
2024-04-05T01:50:03.516Z,11
2024-04-05T01:55:02.850Z,0
2024-04-05T02:00:03.871Z,5
2024-04-05T02:05:03.876Z,11
2024-04-05T02:10:02.170Z,10
2024-04-05T02:15:02.508Z,0
2024-04-05T02:20:02.847Z,0
2024-04-05T02:25:03.092Z,0
2024-04-05T02:30:02.397Z,5
2024-04-05T02:35:02.710Z,6
2024-04-05T02:40:02.960Z,6
2024-04-05T02:45:02.927Z,0
2024-04-05T02:50:02.819Z,0
2024-04-05T02:55:03.184Z,7
2024-04-05T03:00:02.913Z,0
2024-04-05T03:05:02.228Z,0
2024-04-05T03:10:02.484Z,15
2024-04-05T03:15:04.022Z,20
2024-04-05T03:20:02.356Z,9
2024-04-05T03:25:02.701Z,24
2024-04-05T03:30:04.363Z,29
2024-04-05T03:35:02.885Z,7
2024-04-05T03:40:02.304Z,22
2024-04-05T03:45:02.661Z,3
2024-04-05T03:50:03.043Z,17
2024-04-05T03:55:03.037Z,25
2024-04-05T04:00:02.362Z,35
2024-04-05T04:05:02.749Z,59
2024-04-05T04:10:03.993Z,132
2024-04-05T04:15:02.300Z,320
2024-04-05T04:20:02.613Z,689
2024-04-05T04:25:03.000Z,1724
2024-04-05T04:30:02.317Z,4334
2024-04-05T04:35:02.679Z,150
2024-04-05T04:40:03.065Z,348
2024-04-05T04:45:02.350Z,621
2024-04-05T04:50:02.803Z,782
2024-04-05T04:55:03.057Z,1024
2024-04-05T05:00:02.294Z,1696
2024-04-05T05:05:02.917Z,3737
2024-04-05T05:10:02.180Z,4663
2024-04-05T05:15:02.445Z,7184
2024-04-05T05:20:02.844Z,9275
2024-04-05T05:25:03.099Z,625
2024-04-05T05:30:02.359Z,604
2024-04-05T05:35:02.661Z,583
2024-04-05T05:40:02.969Z,621
2024-04-05T05:45:02.268Z,752
2024-04-05T05:50:02.583Z,1528
2024-04-05T05:55:02.889Z,1125
2024-04-05T06:00:02.758Z,1801
2024-04-05T06:05:03.075Z,1006
2024-04-05T06:10:02.302Z,692
2024-04-05T06:15:03.426Z,573
2024-04-05T06:20:02.940Z,739
2024-04-05T06:25:02.175Z,1690
2024-04-05T06:30:02.407Z,2891
2024-04-05T06:35:03.502Z,2723
2024-04-05T06:40:03.993Z,5222
2024-04-05T06:45:03.124Z,6056
2024-04-05T06:50:02.432Z,3357
2024-04-05T06:55:03.641Z,3881
2024-04-05T07:00:03.809Z,3723
2024-04-05T07:05:03.080Z,5211
2024-04-05T07:10:02.361Z,5816
2024-04-05T07:15:02.686Z,8726
2024-04-05T07:20:03.118Z,348
2024-04-05T07:25:03.579Z,311
2024-04-05T07:30:03.083Z,325
2024-04-05T07:35:02.394Z,420
2024-04-05T07:40:03.862Z,343
2024-04-05T07:45:03.526Z,434
2024-04-05T07:50:02.832Z,438
2024-04-05T07:55:04.754Z,400
2024-04-05T08:00:03.160Z,457
2024-04-05T08:05:03.443Z,508
2024-04-05T08:10:02.688Z,422
2024-04-05T08:15:03.726Z,554
2024-04-05T08:20:04.264Z,566
2024-04-05T08:25:03.938Z,594
2024-04-05T08:30:02.271Z,515
2024-04-05T08:35:02.554Z,640
2024-04-05T08:40:04.259Z,443
2024-04-05T08:45:03.872Z,294
2024-04-05T08:50:02.223Z,317
2024-04-05T08:55:02.538Z,245
2024-04-05T09:00:02.759Z,209
2024-04-05T09:05:03.107Z,239
2024-04-05T09:10:03.180Z,187
2024-04-05T09:15:02.484Z,284
2024-04-05T09:20:02.750Z,506
2024-04-05T09:25:03.050Z,314
2024-04-05T09:30:02.307Z,490
2024-04-05T09:35:02.646Z,441
2024-04-05T09:40:04.540Z,413
2024-04-05T09:45:02.919Z,459
2024-04-05T09:50:02.562Z,646
2024-04-05T09:55:02.845Z,644
2024-04-05T10:00:04.324Z,621
2024-04-05T10:05:04.232Z,597
2024-04-05T10:10:02.471Z,592
2024-04-05T10:15:04.184Z,658
2024-04-05T10:20:03.777Z,714
2024-04-05T10:25:03.035Z,822
2024-04-05T10:30:03.515Z,754
2024-04-05T10:35:02.958Z,654
2024-04-05T10:40:02.302Z,465
2024-04-05T10:45:02.871Z,354
2024-04-05T10:50:02.235Z,196
2024-04-05T10:55:02.604Z,125
2024-04-05T11:00:02.872Z,164
2024-04-05T11:05:03.175Z,184
2024-04-05T11:10:06.621Z,171
2024-04-05T11:15:04.043Z,251
2024-04-05T11:20:02.526Z,314
2024-04-05T11:25:02.867Z,217
2024-04-05T11:30:04.293Z,233
2024-04-05T11:35:03.188Z,358
2024-04-05T11:40:03.845Z,415
2024-04-05T11:45:03.131Z,1088
2024-04-05T11:50:03.450Z,1510
2024-04-05T11:55:02.740Z,958
2024-04-05T12:00:03.298Z,2425
2024-04-05T12:05:03.773Z,543
2024-04-05T12:10:03.216Z,415
2024-04-05T12:15:02.472Z,424
2024-04-05T12:20:02.979Z,400
2024-04-05T12:25:02.370Z,408
2024-04-05T12:30:02.624Z,412
2024-04-05T12:35:03.134Z,364
2024-04-05T12:40:02.490Z,364
2024-04-05T12:45:02.715Z,331
2024-04-05T12:50:03.034Z,329
2024-04-05T12:55:02.294Z,173
2024-04-05T13:00:02.742Z,290
2024-04-05T13:05:03.060Z,335
2024-04-05T13:10:02.340Z,125
2024-04-05T13:15:02.685Z,329
2024-04-05T13:20:02.979Z,567
2024-04-05T13:25:02.284Z,408
2024-04-05T13:30:02.638Z,255
2024-04-05T13:35:03.231Z,122
2024-04-05T13:40:02.537Z,75
2024-04-05T13:45:02.809Z,113
2024-04-05T13:50:03.129Z,76
2024-04-05T13:55:02.439Z,160
2024-04-05T14:00:02.785Z,125
2024-04-05T14:05:03.067Z,215
2024-04-05T14:10:02.364Z,330
2024-04-05T14:15:02.573Z,262
2024-04-05T14:20:02.974Z,111
2024-04-05T14:25:02.459Z,92
2024-04-05T14:30:02.880Z,271
2024-04-05T14:35:02.188Z,146
2024-04-05T14:40:02.636Z,391
2024-04-05T14:45:02.952Z,435
2024-04-05T14:50:02.200Z,389
2024-04-05T14:55:02.572Z,404
2024-04-05T15:00:02.757Z,443
2024-04-05T15:05:03.019Z,527
2024-04-05T15:10:02.330Z,633
2024-04-05T15:15:02.711Z,527
2024-04-05T15:20:03.091Z,469
2024-04-05T15:25:02.440Z,652
2024-04-05T15:30:02.718Z,221
2024-04-05T15:35:02.946Z,379
2024-04-05T15:40:02.229Z,168
2024-04-05T15:45:02.552Z,151
2024-04-05T15:50:02.870Z,165
2024-04-05T15:55:02.199Z,156
2024-04-05T16:00:02.432Z,249
2024-04-05T16:05:02.744Z,307
2024-04-05T16:10:03.090Z,108
2024-04-05T16:15:03.482Z,135
2024-04-05T16:20:02.888Z,168
2024-04-05T16:25:02.278Z,170
2024-04-05T16:30:02.659Z,256
2024-04-05T16:35:02.994Z,175
2024-04-05T16:40:02.271Z,148
2024-04-05T16:45:02.547Z,125
2024-04-05T16:50:02.805Z,136
2024-04-05T16:55:03.060Z,119
2024-04-05T17:00:02.333Z,105
2024-04-05T17:05:02.613Z,106
2024-04-05T17:10:02.871Z,97
2024-04-05T17:15:03.113Z,96
2024-04-05T17:20:02.436Z,71
2024-04-05T17:25:02.699Z,55
2024-04-05T17:30:02.954Z,63
2024-04-05T17:35:02.285Z,45
2024-04-05T17:40:02.595Z,511
2024-04-05T17:45:02.845Z,750
2024-04-05T17:50:03.208Z,542
2024-04-05T17:55:02.429Z,364
2024-04-05T18:00:02.771Z,208
2024-04-05T18:05:03.041Z,59
2024-04-05T18:10:02.264Z,66
2024-04-05T18:15:02.690Z,53
2024-04-05T18:20:05.318Z,29
2024-04-05T18:25:02.774Z,253
2024-04-05T18:30:03.143Z,100
2024-04-05T18:35:02.369Z,38
2024-04-05T18:40:02.662Z,400
2024-04-05T18:45:03.085Z,166
2024-04-05T18:50:02.375Z,68
2024-04-05T18:55:02.753Z,28
2024-04-05T19:00:03.106Z,36
2024-04-05T19:05:02.453Z,16
2024-04-05T19:10:02.857Z,6
2024-04-05T19:15:03.176Z,0
2024-04-05T19:20:02.626Z,0
2024-04-05T19:25:03.552Z,9
2024-04-05T19:30:02.939Z,8
2024-04-05T19:35:02.431Z,0
2024-04-05T19:40:02.739Z,0
2024-04-05T19:45:03.036Z,0
2024-04-05T19:50:03.786Z,7
2024-04-05T19:55:02.318Z,7
2024-04-05T20:00:02.677Z,6
2024-04-05T20:05:03.005Z,0
2024-04-05T20:10:02.397Z,8
2024-04-05T20:15:02.776Z,0
2024-04-05T20:20:03.364Z,7
2024-04-05T20:25:02.713Z,6
2024-04-05T20:30:03.032Z,6
2024-04-05T20:35:02.405Z,5
2024-04-05T20:40:02.736Z,5
2024-04-05T20:45:03.060Z,5
2024-04-05T20:50:02.365Z,5
2024-04-05T20:55:02.721Z,6
2024-04-05T21:00:02.975Z,6
2024-04-05T21:05:02.341Z,5
2024-04-05T21:10:02.597Z,5
2024-04-05T21:15:02.914Z,5
2024-04-05T21:20:05.984Z,5
2024-04-05T21:25:02.819Z,0
2024-04-05T21:30:03.108Z,4
2024-04-05T21:35:02.366Z,0
2024-04-05T21:40:02.717Z,4
2024-04-05T21:45:03.039Z,0
2024-04-05T21:50:02.556Z,4
2024-04-05T21:55:02.949Z,3
2024-04-05T22:00:02.370Z,5
2024-04-05T22:05:02.800Z,5
2024-04-05T22:10:03.049Z,0
2024-04-05T22:15:02.368Z,0
2024-04-05T22:20:02.693Z,4
2024-04-05T22:25:03.002Z,0
2024-04-05T22:30:02.282Z,6
2024-04-05T22:35:02.901Z,0
2024-04-05T22:40:02.223Z,0
2024-04-05T22:45:02.490Z,0
2024-04-05T22:50:02.787Z,0
2024-04-05T22:55:03.033Z,7
2024-04-05T23:00:02.354Z,0
2024-04-05T23:05:02.790Z,8
2024-04-05T23:10:03.808Z,0
2024-04-05T23:15:03.064Z,16
2024-04-05T23:20:02.455Z,11
2024-04-05T23:25:03.016Z,10
2024-04-05T23:30:02.230Z,14
2024-04-05T23:35:02.556Z,1
2024-04-05T23:40:02.933Z,10
2024-04-05T23:45:02.245Z,0
2024-04-05T23:50:02.648Z,4
2024-04-05T23:55:02.888Z,0
